PWSweather.com
Personal Weather Stations
Station Observations
WISCHPK61
Green Bay Schmitt Park, Green Bay, WI 54311

Green Bay Schmitt ParkGreen Bay, WI 54311

Lat: 44.514277, Lon: -87.935067

Elevation: 735

Station Type: Acu Rite Pro Weather Center model 02032C

http://greenbayweathercam.com

High Low Average
Temperature 81.8°F27.7°C 47.5°F8.6°C 59.9°F15.5°C
Dew Point 81.5°F27.5°C 28.5°F-1.9°C 54.6°F12.6°C
Winds Calm Calm Calm Calm Calm SSWCalm SSW
Wind Gusts 2.3 mph3.7 kmh -- --
Humidity 99% 40% 86%
Pressure 29.28 in991.5 mb 29.11 in985.8 mb -
Precipitation 0.00 in0.0 mm - -
Hour Temp Dew Point Humidity Winds Wind Gusts Pressure Precip Precip Rate Daily Precip Total
12:00 AM 50.0°F10.0°C 49.7°F9.8°C 99% Calm Calm -- 29.11 in985.8 mb - 0.00 in0.0 mm 0.00 in0.0 mm
01:00 AM 49.5°F9.7°C 49.2°F9.6°C 99% Calm Calm -- 29.12 in986.1 mb - 0.00 in0.0 mm 0.00 in0.0 mm
02:00 AM 48.4°F9.1°C 48.1°F8.9°C 99% Calm Calm -- 29.11 in985.8 mb - 0.00 in0.0 mm 0.00 in0.0 mm
03:00 AM 47.5°F8.6°C 47.2°F8.4°C 99% Calm Calm -- 29.12 in986.1 mb - 0.00 in0.0 mm 0.00 in0.0 mm
04:00 AM 48.9°F9.4°C 28.5°F-1.9°C 45% Calm Calm -- 29.14 in986.8 mb - 0.00 in0.0 mm 0.00 in0.0 mm
05:00 AM 48.9°F9.4°C 48.6°F9.2°C 99% Calm Calm -- 29.15 in987.1 mb - 0.00 in0.0 mm 0.00 in0.0 mm
06:00 AM 50.5°F10.3°C 32.5°F0.3°C 50% Calm Calm -- 29.15 in987.1 mb - 0.00 in0.0 mm 0.00 in0.0 mm
07:00 AM 51.6°F10.9°C 51.3°F10.7°C 99% Calm Calm -- 29.17 in987.8 mb - 0.00 in0.0 mm 0.00 in0.0 mm
08:00 AM 56.7°F13.7°C 56.4°F13.6°C 99% Calm Calm -- 29.19 in988.5 mb - 0.00 in0.0 mm 0.00 in0.0 mm
09:00 AM 60.1°F15.6°C 59.8°F15.4°C 99% Calm Calm 2.3 mph3.7 kmh 29.20 in988.8 mb - 0.00 in0.0 mm 0.00 in0.0 mm
10:00 AM 67.4°F19.7°C 67.1°F19.5°C 99% Calm Calm -- 29.21 in989.2 mb - 0.00 in0.0 mm 0.00 in0.0 mm
11:00 AM 70.5°F21.4°C 48.2°F9.0°C 45% Calm Calm -- 29.23 in989.8 mb - 0.00 in0.0 mm 0.00 in0.0 mm
12:00 PM 72.7°F22.6°C 72.4°F22.4°C 99% Calm Calm -- 29.23 in989.8 mb - 0.00 in0.0 mm 0.00 in0.0 mm
01:00 PM 81.8°F27.7°C 81.5°F27.5°C 99% Calm Calm -- 29.22 in989.5 mb - 0.00 in0.0 mm 0.00 in0.0 mm
02:00 PM 72.5°F22.5°C 46.8°F8.2°C 40% Calm Calm -- 29.21 in989.2 mb - 0.00 in0.0 mm 0.00 in0.0 mm
03:00 PM 79.9°F26.6°C 79.6°F26.4°C 99% Calm Calm -- 29.19 in988.5 mb - 0.00 in0.0 mm 0.00 in0.0 mm
04:00 PM 73.8°F23.2°C 73.5°F23.1°C 99% Calm Calm -- 29.19 in988.5 mb - 0.00 in0.0 mm 0.00 in0.0 mm
05:00 PM 61.3°F16.3°C 39.1°F3.9°C 44% Calm Calm -- 29.21 in989.2 mb - 0.00 in0.0 mm 0.00 in0.0 mm
06:00 PM 67.5°F19.7°C 67.2°F19.6°C 99% Calm Calm -- 29.21 in989.2 mb - 0.00 in0.0 mm 0.00 in0.0 mm
07:00 PM 66.0°F18.9°C 52.2°F11.2°C 61% Calm Calm -- 29.22 in989.5 mb - 0.00 in0.0 mm 0.00 in0.0 mm
08:00 PM 58.5°F14.7°C 58.3°F14.6°C 99% Calm Calm -- 29.24 in990.2 mb - 0.00 in0.0 mm 0.00 in0.0 mm
09:00 PM 51.0°F10.6°C 50.7°F10.4°C 99% Calm Calm -- 29.26 in990.9 mb - 0.00 in0.0 mm 0.00 in0.0 mm
10:00 PM 51.2°F10.7°C 50.9°F10.5°C 99% Calm Calm -- 29.26 in990.9 mb - 0.00 in0.0 mm 0.00 in0.0 mm
11:00 PM 53.5°F11.9°C 53.2°F11.8°C 99% Calm Calm -- 29.25 in990.5 mb - 0.00 in0.0 mm 0.00 in0.0 mm